createdAt,value
2019-04-21T00:00:35.536Z,64.36
2019-04-21T00:03:15.210Z,63.43
2019-04-21T00:06:07.565Z,65.62
2019-04-21T00:08:48.466Z,65.56
2019-04-21T00:11:11.126Z,65.97
2019-04-21T00:13:33.129Z,68.25
2019-04-21T00:16:02.387Z,68.33
2019-04-21T00:18:46.454Z,68.45
2019-04-21T00:21:25.530Z,68.72
2019-04-21T00:24:00.368Z,68.68
2019-04-21T00:26:42.906Z,68.90
2019-04-21T00:29:19.273Z,69.15
2019-04-21T00:31:41.935Z,69.85
2019-04-21T00:34:02.580Z,70.30
2019-04-21T00:36:47.111Z,70.33
2019-04-21T00:39:36.478Z,70.47
2019-04-21T00:42:08.629Z,71.51
2019-04-21T00:44:29.484Z,72.07
2019-04-21T00:47:08.458Z,72.52
2019-04-21T00:49:45.360Z,72.20
2019-04-21T00:52:43.684Z,72.46
2019-04-21T00:55:14.033Z,71.32
2019-04-21T00:57:38.870Z,72.74
2019-04-21T01:00:16.130Z,71.91
2019-04-21T01:05:16.688Z,71.48
2019-04-21T01:07:48.009Z,72.88
2019-04-21T01:10:15.008Z,72.45
2019-04-21T01:12:56.102Z,72.96
2019-04-21T01:15:38.613Z,73.10
2019-04-21T01:18:06.369Z,72.70
2019-04-21T01:20:17.928Z,73.44
2019-04-21T01:22:49.824Z,72.06
2019-04-21T01:25:30.194Z,68.67
2019-04-21T01:28:15.135Z,68.05
2019-04-21T01:30:50.347Z,67.24
2019-04-21T01:33:26.267Z,68.13
2019-04-21T01:35:53.713Z,68.09
2019-04-21T01:38:34.315Z,69.04
2019-04-21T01:41:08.037Z,69.45
2019-04-21T01:43:35.778Z,69.78
2019-04-21T01:46:06.717Z,70.07
2019-04-21T01:48:34.252Z,70.22
2019-04-21T01:51:11.526Z,70.37
2019-04-21T01:53:48.346Z,70.56
2019-04-21T01:56:31.821Z,71.43
2019-04-21T01:58:54.016Z,71.96
2019-04-21T02:01:46.244Z,72.30
2019-04-21T02:04:13.987Z,73.11
2019-04-21T02:06:44.446Z,72.98
2019-04-21T02:09:15.266Z,73.12
2019-04-21T02:11:56.505Z,73.17
2019-04-21T02:14:31.106Z,73.75
2019-04-21T02:16:59.289Z,73.92
2019-04-21T02:19:28.734Z,74.33
2019-04-21T02:21:59.573Z,74.68
2019-04-21T02:27:14.908Z,75.24
2019-04-21T02:29:48.654Z,75.14
2019-04-21T02:32:35.705Z,74.93
2019-04-21T02:42:46.311Z,75.27
2019-04-21T02:45:20.885Z,74.97
2019-04-21T02:50:28.280Z,75.15
2019-04-21T02:55:28.981Z,75.31
2019-04-21T02:58:06.124Z,75.13
2019-04-21T03:01:03.269Z,74.88
2019-04-21T03:03:54.995Z,75.11
2019-04-21T03:06:56.372Z,75.56
2019-04-21T03:09:25.953Z,75.32
2019-04-21T03:11:56.072Z,75.05
2019-04-21T03:14:40.814Z,74.52
2019-04-21T03:16:57.706Z,74.15
2019-04-21T03:22:20.966Z,73.10
2019-04-21T03:25:00.951Z,72.38
2019-04-21T03:40:02.549Z,72.79
2019-04-21T03:42:38.839Z,71.96
2019-04-21T03:47:38.336Z,71.55
2019-04-21T03:50:11.088Z,71.30
2019-04-21T03:55:48.750Z,71.83
2019-04-21T03:58:14.836Z,72.67
2019-04-21T04:00:58.278Z,72.61
2019-04-21T04:06:08.024Z,71.27
2019-04-21T04:09:03.527Z,71.65
2019-04-21T04:11:31.575Z,70.75
2019-04-21T04:14:14.253Z,70.07
2019-04-21T04:16:26.955Z,70.34
2019-04-21T04:21:44.254Z,70.00
2019-04-21T04:26:57.815Z,67.98
2019-04-21T04:31:43.905Z,67.16
2019-04-21T04:34:29.149Z,66.39
2019-04-21T04:44:54.276Z,64.99
2019-04-21T04:54:55.461Z,61.47
2019-04-21T05:00:14.307Z,59.23
2019-04-21T05:07:53.894Z,59.83
2019-04-21T05:10:18.235Z,59.42
2019-04-21T05:12:43.837Z,58.66
2019-04-21T05:15:17.871Z,57.41
2019-04-21T05:17:50.672Z,57.65
2019-04-21T05:20:45.977Z,57.82
2019-04-21T05:22:53.284Z,57.23
2019-04-21T05:25:23.685Z,56.73
2019-04-21T05:27:56.371Z,55.92
2019-04-21T05:30:45.036Z,55.25
2019-04-21T05:33:20.512Z,54.49
2019-04-21T05:36:02.055Z,55.14
2019-04-21T05:38:44.878Z,54.57
2019-04-21T05:41:13.088Z,52.09
2019-04-21T05:44:01.927Z,50.57
2019-04-21T05:46:35.631Z,49.61
2019-04-21T05:49:10.518Z,49.52
2019-04-21T05:51:55.716Z,51.30
2019-04-21T05:57:05.920Z,49.52
2019-04-21T05:59:43.621Z,49.39
2019-04-21T06:07:28.855Z,47.26
2019-04-21T06:10:00.125Z,46.10
2019-04-21T06:12:38.156Z,46.85
2019-04-21T06:15:06.995Z,46.11
2019-04-21T06:17:44.654Z,42.75
2019-04-21T06:20:15.382Z,44.27
2019-04-21T06:22:50.612Z,45.22
2019-04-21T06:25:43.157Z,44.65
2019-04-21T06:28:04.729Z,44.54
2019-04-21T06:30:33.269Z,44.36
2019-04-21T06:33:09.941Z,44.59
2019-04-21T06:36:12.675Z,43.15
2019-04-21T06:38:53.856Z,40.79
2019-04-21T06:41:22.752Z,41.74
2019-04-21T06:43:56.345Z,40.48
2019-04-21T06:46:30.947Z,40.75
2019-04-21T06:49:00.259Z,40.40
2019-04-21T06:51:32.285Z,38.67
2019-04-21T06:56:41.279Z,36.89
2019-04-21T06:59:10.938Z,37.98
2019-04-21T07:01:52.637Z,38.15
2019-04-21T07:04:37.758Z,38.37
2019-04-21T07:06:57.496Z,37.79
2019-04-21T07:09:47.451Z,37.91
2019-04-21T07:12:02.281Z,36.55
2019-04-21T07:14:34.622Z,34.77
2019-04-21T07:17:11.367Z,35.48
2019-04-21T07:19:49.975Z,35.36
2019-04-21T07:22:23.034Z,35.70
2019-04-21T07:24:51.897Z,36.57
2019-04-21T07:27:22.304Z,35.84
2019-04-21T07:29:58.504Z,33.87
2019-04-21T07:32:49.741Z,31.98
2019-04-21T07:35:03.643Z,31.90
2019-04-21T07:37:36.616Z,31.86
2019-04-21T07:40:07.730Z,31.38
2019-04-21T07:42:40.078Z,29.98
2019-04-21T07:45:11.711Z,30.00
2019-04-21T07:47:53.099Z,30.26
2019-04-21T07:50:35.043Z,30.84
2019-04-21T07:53:27.678Z,31.04
2019-04-21T07:55:39.237Z,29.90
2019-04-21T07:58:43.787Z,29.33
2019-04-21T08:01:07.756Z,30.35
2019-04-21T08:03:38.934Z,30.58
2019-04-21T08:06:18.739Z,29.38
2019-04-21T08:08:48.830Z,27.67
2019-04-21T08:11:14.879Z,27.93
2019-04-21T08:13:55.089Z,27.24
2019-04-21T08:18:59.824Z,26.45
2019-04-21T08:21:35.456Z,26.52
2019-04-21T08:24:06.191Z,26.38
2019-04-21T08:29:20.793Z,26.50
2019-04-21T08:32:14.564Z,27.28
2019-04-21T08:34:21.492Z,26.66
2019-04-21T08:36:57.571Z,25.88
2019-04-21T08:39:39.514Z,25.83
2019-04-21T08:42:08.476Z,26.68
2019-04-21T08:44:40.268Z,26.53
2019-04-21T08:47:15.470Z,27.38
2019-04-21T08:49:42.829Z,26.02
2019-04-21T08:52:28.384Z,25.82
2019-04-21T08:54:55.785Z,25.51
2019-04-21T08:57:37.695Z,25.63
2019-04-21T09:00:29.598Z,26.38
2019-04-21T09:03:02.398Z,25.75
2019-04-21T09:05:32.578Z,25.33
2019-04-21T09:08:06.650Z,25.32
2019-04-21T09:10:44.433Z,26.04
2019-04-21T09:13:14.841Z,25.16
2019-04-21T09:15:41.627Z,25.25
2019-04-21T09:18:13.398Z,25.88
2019-04-21T09:20:57.634Z,26.10
2019-04-21T09:23:25.653Z,25.43
2019-04-21T09:25:57.445Z,25.43
2019-04-21T09:28:27.257Z,25.87
2019-04-21T09:30:53.507Z,26.13
2019-04-21T09:33:28.048Z,26.11
2019-04-21T09:36:01.202Z,26.03
2019-04-21T09:38:36.033Z,26.34
2019-04-21T09:41:06.711Z,26.21
2019-04-21T09:43:43.870Z,26.32
2019-04-21T09:46:09.827Z,26.58
2019-04-21T09:48:49.783Z,26.41
2019-04-21T09:51:17.741Z,25.47
2019-04-21T09:53:58.339Z,25.85
2019-04-21T09:56:31.525Z,25.89
2019-04-21T09:59:05.555Z,26.42
2019-04-21T10:01:45.109Z,26.48
2019-04-21T10:04:05.868Z,26.87
2019-04-21T10:06:37.811Z,26.34
2019-04-21T10:09:14.157Z,26.32
2019-04-21T10:11:43.864Z,26.54
2019-04-21T10:14:15.615Z,26.75
2019-04-21T10:16:57.250Z,26.32
2019-04-21T10:19:29.715Z,26.73
2019-04-21T10:22:03.966Z,25.95
2019-04-21T10:24:34.554Z,25.95
2019-04-21T10:27:07.298Z,25.59
2019-04-21T10:29:43.207Z,25.80
2019-04-21T10:32:13.548Z,25.67
2019-04-21T10:34:45.321Z,26.19
2019-04-21T10:37:17.121Z,25.17
2019-04-21T10:39:49.613Z,25.37
2019-04-21T10:42:21.513Z,24.54
2019-04-21T10:44:53.188Z,25.11
2019-04-21T10:47:25.048Z,25.09
2019-04-21T10:49:56.606Z,25.39
2019-04-21T10:52:33.985Z,25.47
2019-04-21T10:55:19.160Z,25.37
2019-04-21T10:57:39.955Z,25.48
2019-04-21T11:00:13.937Z,25.09
2019-04-21T11:02:48.699Z,25.53
2019-04-21T11:05:20.826Z,25.70
2019-04-21T11:08:08.115Z,25.76
2019-04-21T11:10:29.776Z,25.74
2019-04-21T11:13:05.879Z,26.22
2019-04-21T11:15:50.785Z,25.42
2019-04-21T11:18:23.967Z,25.71
2019-04-21T11:20:55.676Z,25.92
2019-04-21T11:23:27.476Z,26.01
2019-04-21T11:26:00.129Z,24.99
2019-04-21T11:28:31.811Z,26.16
2019-04-21T11:31:04.753Z,25.39
2019-04-21T11:33:37.600Z,25.44
2019-04-21T11:36:13.377Z,24.76
2019-04-21T11:39:07.383Z,24.98
2019-04-21T11:41:25.645Z,25.47
2019-04-21T11:43:59.107Z,25.51
2019-04-21T11:46:34.240Z,25.11
2019-04-21T11:49:06.398Z,25.12
2019-04-21T11:51:38.025Z,25.52
2019-04-21T11:54:10.835Z,25.50
2019-04-21T11:56:43.218Z,25.55
2019-04-21T11:59:15.545Z,25.55
2019-04-21T12:01:47.666Z,25.39
2019-04-21T12:04:19.204Z,25.44
2019-04-21T12:06:52.874Z,25.73
2019-04-21T12:09:30.705Z,26.36
2019-04-21T12:12:03.399Z,25.93
2019-04-21T12:14:36.307Z,26.53
2019-04-21T12:17:07.967Z,26.63
2019-04-21T12:19:40.787Z,26.49
2019-04-21T12:22:20.138Z,26.11
2019-04-21T12:24:47.036Z,26.68
2019-04-21T12:27:18.532Z,25.43
2019-04-21T12:29:51.519Z,26.46
2019-04-21T12:32:34.023Z,25.94
2019-04-21T12:35:10.040Z,25.85
2019-04-21T12:37:42.793Z,25.65
2019-04-21T12:40:14.835Z,25.66
2019-04-21T12:42:48.318Z,25.61
2019-04-21T12:45:22.000Z,25.62
2019-04-21T12:47:55.531Z,25.47
2019-04-21T12:50:28.230Z,25.56
2019-04-21T12:53:00.116Z,25.26
2019-04-21T12:55:36.629Z,24.68
2019-04-21T12:58:05.549Z,24.49
2019-04-21T13:00:38.866Z,24.91
2019-04-21T13:03:10.375Z,25.34
2019-04-21T13:05:43.331Z,25.29
2019-04-21T13:08:15.472Z,24.42
2019-04-21T13:10:48.446Z,24.15
2019-04-21T13:13:20.065Z,24.46
2019-04-21T13:15:53.661Z,24.31
2019-04-21T13:18:25.318Z,24.23
2019-04-21T13:20:59.339Z,24.65
2019-04-21T13:23:32.110Z,24.48
2019-04-21T13:26:04.352Z,24.64
2019-04-21T13:28:37.516Z,23.99
2019-04-21T13:31:10.350Z,23.76
2019-04-21T13:33:42.415Z,24.22
2019-04-21T13:36:15.700Z,24.45
2019-04-21T13:39:32.730Z,23.81
2019-04-21T13:41:50.469Z,23.89
2019-04-21T13:44:15.622Z,23.91
2019-04-21T13:46:49.004Z,23.69
2019-04-21T13:49:23.367Z,24.21
2019-04-21T13:51:56.215Z,23.99
2019-04-21T13:54:27.814Z,23.39
2019-04-21T13:57:00.671Z,23.33
2019-04-21T13:59:34.303Z,23.91
2019-04-21T14:02:06.863Z,23.56
2019-04-21T14:04:38.434Z,23.86
2019-04-21T14:07:10.128Z,23.81
2019-04-21T14:09:50.020Z,23.83
2019-04-21T14:12:15.024Z,23.68
2019-04-21T14:14:48.273Z,23.68
2019-04-21T14:17:21.330Z,23.59
2019-04-21T14:19:55.002Z,23.65
2019-04-21T14:22:31.717Z,23.70
2019-04-21T14:25:10.759Z,24.02
2019-04-21T14:27:46.998Z,24.15
2019-04-21T14:30:20.534Z,25.09
2019-04-21T14:32:54.085Z,24.74
2019-04-21T14:35:29.534Z,24.54
2019-04-21T14:38:02.706Z,24.66
2019-04-21T14:40:36.716Z,24.66
2019-04-21T14:43:14.163Z,25.02
2019-04-21T14:45:50.502Z,25.13
2019-04-21T14:48:43.048Z,25.45
2019-04-21T14:51:19.070Z,25.22
2019-04-21T14:53:56.338Z,25.54
2019-04-21T14:56:29.357Z,25.72
2019-04-21T14:59:02.628Z,25.84
2019-04-21T15:01:37.723Z,24.72
2019-04-21T15:04:09.897Z,25.16
2019-04-21T15:06:43.313Z,25.34
2019-04-21T15:09:15.364Z,25.54
2019-04-21T15:11:47.703Z,24.88
2019-04-21T15:14:20.123Z,25.09
2019-04-21T15:16:51.836Z,25.17
2019-04-21T15:19:24.584Z,24.50
2019-04-21T15:21:56.709Z,24.46
2019-04-21T15:24:30.016Z,24.78
2019-04-21T15:27:02.948Z,24.86
2019-04-21T15:29:35.018Z,24.96
2019-04-21T15:32:08.182Z,25.20
2019-04-21T15:34:42.385Z,25.68
2019-04-21T15:37:14.054Z,25.43
2019-04-21T15:39:46.880Z,25.47
2019-04-21T15:42:18.657Z,25.44
2019-04-21T15:44:50.614Z,25.22
2019-04-21T15:47:23.982Z,24.44
2019-04-21T15:50:02.807Z,24.36
2019-04-21T15:52:30.050Z,24.63
2019-04-21T15:55:06.186Z,25.05
2019-04-21T15:57:47.034Z,25.53
2019-04-21T16:00:24.722Z,25.47
2019-04-21T16:02:56.726Z,26.17
2019-04-21T16:05:28.657Z,26.63
2019-04-21T16:08:00.363Z,27.14
2019-04-21T16:10:43.057Z,27.57
2019-04-21T16:13:05.879Z,27.50
2019-04-21T16:15:38.657Z,27.66
2019-04-21T16:18:12.048Z,27.65
2019-04-21T16:20:43.973Z,27.94
2019-04-21T16:23:16.183Z,28.19
2019-04-21T16:25:48.679Z,28.90
2019-04-21T16:28:21.539Z,29.54
2019-04-21T16:30:54.338Z,29.89
2019-04-21T16:33:27.124Z,30.36
2019-04-21T16:35:59.815Z,30.90
2019-04-21T16:38:31.546Z,30.93
2019-04-21T16:41:06.944Z,30.65
2019-04-21T16:43:38.124Z,30.40
2019-04-21T16:46:10.793Z,30.94
2019-04-21T16:48:44.177Z,31.49
2019-04-21T16:51:16.426Z,32.33
2019-04-21T16:53:50.449Z,33.08
2019-04-21T16:56:24.772Z,33.66
2019-04-21T16:58:58.884Z,34.15
2019-04-21T17:01:32.297Z,34.30
2019-04-21T17:04:04.635Z,34.48
2019-04-21T17:06:38.313Z,34.33
2019-04-21T17:09:10.673Z,34.20
2019-04-21T17:11:44.765Z,34.46
2019-04-21T17:14:33.136Z,34.86
2019-04-21T17:17:16.038Z,35.03
2019-04-21T17:19:29.452Z,35.34
2019-04-21T17:21:57.514Z,35.95
2019-04-21T17:24:30.534Z,36.17
2019-04-21T17:27:02.858Z,35.96
2019-04-21T17:29:35.051Z,35.41
2019-04-21T17:32:09.350Z,35.75
2019-04-21T17:34:41.038Z,35.95
2019-04-21T17:37:13.067Z,35.71
2019-04-21T17:39:45.074Z,35.10
2019-04-21T17:42:26.501Z,35.85
2019-04-21T17:44:51.243Z,36.06
2019-04-21T17:47:36.381Z,36.25
2019-04-21T17:50:07.778Z,36.01
2019-04-21T17:52:48.836Z,37.17
2019-04-21T17:55:29.831Z,37.37
2019-04-21T17:58:16.294Z,37.58
2019-04-21T18:04:01.614Z,38.15
2019-04-21T18:06:05.351Z,38.42
2019-04-21T18:08:48.349Z,38.95
2019-04-21T18:11:05.998Z,39.24
2019-04-21T18:13:32.741Z,39.37
2019-04-21T18:16:16.179Z,39.00
2019-04-21T18:18:39.046Z,38.66
2019-04-21T18:21:12.512Z,38.23
2019-04-21T18:24:00.724Z,37.76
2019-04-21T18:26:39.882Z,37.93
2019-04-21T18:29:01.107Z,37.82
2019-04-21T18:31:39.804Z,37.91
2019-04-21T18:34:27.374Z,37.86
2019-04-21T18:37:06.534Z,37.97
2019-04-21T18:39:52.478Z,37.59
2019-04-21T18:42:42.198Z,37.68
2019-04-21T18:48:12.483Z,38.33
2019-04-21T18:50:50.942Z,37.96
2019-04-21T18:53:50.403Z,37.87
2019-04-21T18:56:11.222Z,38.14
2019-04-21T18:58:42.515Z,37.94
2019-04-21T19:01:20.717Z,37.80
2019-04-21T19:03:52.202Z,38.06
2019-04-21T19:06:40.571Z,37.98
2019-04-21T19:09:11.773Z,38.05
2019-04-21T19:11:48.035Z,37.64
2019-04-21T19:14:40.084Z,37.83
2019-04-21T19:17:11.082Z,37.91
2019-04-21T19:22:04.881Z,38.40
2019-04-21T19:24:33.200Z,38.60
2019-04-21T19:27:12.067Z,38.79
2019-04-21T19:29:54.006Z,38.72
2019-04-21T19:32:21.494Z,38.54
2019-04-21T19:34:36.436Z,37.61
2019-04-21T19:37:11.572Z,37.51
2019-04-21T19:39:53.928Z,37.58
2019-04-21T19:42:22.658Z,37.88
2019-04-21T19:45:03.306Z,37.91
2019-04-21T19:47:38.930Z,38.06
2019-04-21T19:50:10.806Z,38.25
2019-04-21T19:52:39.909Z,38.46
2019-04-21T19:55:00.979Z,38.58
2019-04-21T19:57:34.691Z,38.24
2019-04-21T20:00:10.118Z,38.24
2019-04-21T20:02:43.007Z,38.26
2019-04-21T20:05:24.023Z,38.19
2019-04-21T20:08:05.471Z,38.24
2019-04-21T20:10:39.721Z,38.25
2019-04-21T20:13:14.491Z,38.07
2019-04-21T20:15:51.082Z,38.13
2019-04-21T20:18:13.973Z,38.81
2019-04-21T20:20:35.229Z,38.77
2019-04-21T20:23:15.012Z,39.12
2019-04-21T20:25:47.417Z,39.56
2019-04-21T20:28:29.437Z,39.71
2019-04-21T20:31:09.690Z,39.94
2019-04-21T20:36:15.008Z,40.55
2019-04-21T20:38:35.813Z,41.00
2019-04-21T20:41:16.125Z,42.61
2019-04-21T20:43:54.231Z,42.61
2019-04-21T20:46:24.931Z,42.60
2019-04-21T20:48:52.326Z,43.16
2019-04-21T20:51:28.399Z,43.28
2019-04-21T20:54:03.182Z,43.66
2019-04-21T20:56:40.949Z,43.44
2019-04-21T20:59:07.503Z,42.47
2019-04-21T21:01:43.362Z,41.90
2019-04-21T21:04:13.793Z,41.79
2019-04-21T21:06:48.345Z,41.22
2019-04-21T21:09:18.583Z,41.23
2019-04-21T21:12:20.368Z,41.46
2019-04-21T21:14:31.970Z,41.83
2019-04-21T21:17:13.105Z,42.71
2019-04-21T21:19:48.723Z,44.08
2019-04-21T21:22:07.690Z,44.08
2019-04-21T21:24:49.700Z,44.88
2019-04-21T21:27:19.592Z,44.70
2019-04-21T21:29:50.214Z,44.95
2019-04-21T21:32:25.859Z,45.18
2019-04-21T21:34:59.645Z,46.04
2019-04-21T21:37:39.372Z,44.42
2019-04-21T21:40:12.687Z,44.42
2019-04-21T21:42:27.883Z,44.84
2019-04-21T21:45:06.121Z,46.09
2019-04-21T21:47:49.907Z,47.19
2019-04-21T21:50:11.069Z,47.19
2019-04-21T21:52:47.785Z,47.84
2019-04-21T21:55:11.928Z,47.82
2019-04-21T21:57:50.386Z,47.89
2019-04-21T22:00:23.998Z,48.12
2019-04-21T22:03:03.541Z,48.12
2019-04-21T22:05:42.099Z,48.44
2019-04-21T22:08:04.699Z,49.35
2019-04-21T22:10:36.977Z,50.38
2019-04-21T22:13:14.105Z,50.73
2019-04-21T22:15:43.579Z,50.20
2019-04-21T22:18:34.977Z,49.39
2019-04-21T22:21:03.629Z,48.84
2019-04-21T22:23:29.529Z,48.94
2019-04-21T22:25:57.585Z,49.33
2019-04-21T22:28:29.697Z,49.80
2019-04-21T22:31:05.617Z,50.66
2019-04-21T22:33:41.950Z,50.69
2019-04-21T22:36:20.992Z,51.41
2019-04-21T22:38:59.908Z,51.52
2019-04-21T22:41:26.570Z,51.88
2019-04-21T22:43:51.653Z,52.04
2019-04-21T22:46:22.376Z,52.19
2019-04-21T22:48:59.520Z,52.73
2019-04-21T22:51:35.800Z,53.38
2019-04-21T22:54:01.469Z,53.82
2019-04-21T22:56:34.122Z,54.01
2019-04-21T22:59:10.863Z,54.13
2019-04-21T23:01:42.478Z,51.99
2019-04-21T23:04:15.846Z,53.00
2019-04-21T23:06:55.812Z,52.64
2019-04-21T23:09:22.545Z,53.07
2019-04-21T23:11:57.639Z,52.67
2019-04-21T23:14:27.979Z,53.41
2019-04-21T23:17:23.160Z,53.26
2019-04-21T23:19:46.030Z,52.73
2019-04-21T23:22:21.477Z,52.86
2019-04-21T23:25:05.074Z,53.17
2019-04-21T23:27:26.349Z,53.45
2019-04-21T23:30:13.224Z,52.96
2019-04-21T23:32:34.147Z,52.97
2019-04-21T23:34:55.416Z,52.94
2019-04-21T23:37:28.974Z,52.95
2019-04-21T23:40:07.612Z,53.16
2019-04-21T23:42:37.120Z,52.92
2019-04-21T23:45:08.732Z,53.02
2019-04-21T23:47:51.655Z,52.62
2019-04-21T23:50:29.463Z,52.49
2019-04-21T23:52:49.749Z,51.96
2019-04-21T23:55:23.112Z,51.77
2019-04-21T23:58:02.312Z,51.55
